createdAt,value
2023-01-04T00:01:59.208Z,12.23
2023-01-04T00:07:01.604Z,21.05
2023-01-04T00:12:04.116Z,11.63
2023-01-04T00:17:06.425Z,14.90
2023-01-04T00:22:08.589Z,11.98
2023-01-04T00:27:10.873Z,15.25
2023-01-04T00:32:13.243Z,13.80
2023-01-04T00:37:15.599Z,14.70
2023-01-04T00:42:17.788Z,14.38
2023-01-04T00:47:19.973Z,23.77
2023-01-04T00:52:22.139Z,13.82
2023-01-04T00:57:24.366Z,21.65
2023-01-04T01:02:26.724Z,13.18
2023-01-04T01:07:29.204Z,13.27
2023-01-04T01:12:31.559Z,13.15
2023-01-04T01:17:35.063Z,14.93
2023-01-04T01:22:37.248Z,12.90
2023-01-04T01:27:39.616Z,12.40
2023-01-04T01:32:41.834Z,12.82
2023-01-04T01:37:44.086Z,12.50
2023-01-04T01:42:46.347Z,11.82
2023-01-04T01:47:51.093Z,11.82
2023-01-04T01:52:55.034Z,11.95
2023-01-04T01:57:58.968Z,13.07
2023-01-04T02:03:11.617Z,11.70
2023-01-04T02:08:15.362Z,11.18
2023-01-04T02:13:25.387Z,12.63
2023-01-04T02:18:34.506Z,12.50
2023-01-04T02:23:46.002Z,14.00
2023-01-04T02:29:09.991Z,13.00
2023-01-04T02:34:59.184Z,12.82
2023-01-04T02:40:21.319Z,13.68
2023-01-04T02:45:29.707Z,13.40
2023-01-04T02:50:36.639Z,13.48
2023-01-04T02:56:07.699Z,13.75
2023-01-04T03:01:35.303Z,14.02
2023-01-04T03:06:53.024Z,13.02
2023-01-04T03:12:32.651Z,12.73
2023-01-04T03:17:45.723Z,13.80
2023-01-04T03:23:14.966Z,12.43
2023-01-04T03:28:39.535Z,12.18
2023-01-04T03:34:00.632Z,11.30
2023-01-04T03:39:37.063Z,11.98
2023-01-04T03:45:11.929Z,12.48
2023-01-04T03:50:23.213Z,11.35
2023-01-04T03:55:29.685Z,13.50
2023-01-04T04:00:33.311Z,13.65
2023-01-04T04:06:00.439Z,14.20
2023-01-04T04:11:22.081Z,13.88
2023-01-04T04:16:41.194Z,11.80
2023-01-04T04:21:43.432Z,12.52
2023-01-04T04:26:45.929Z,13.18
2023-01-04T04:31:48.441Z,14.68
2023-01-04T04:36:50.828Z,12.55
2023-01-04T04:41:53.007Z,15.25
2023-01-04T04:46:55.328Z,14.23
2023-01-04T04:51:57.677Z,14.15
2023-01-04T04:56:59.857Z,14.07
2023-01-04T05:02:02.447Z,20.15
2023-01-04T05:07:10.651Z,21.45
2023-01-04T05:12:32.944Z,18.90
2023-01-04T05:17:35.287Z,18.75
2023-01-04T05:22:37.491Z,19.77
2023-01-04T05:27:39.982Z,20.85
2023-01-04T05:32:42.164Z,21.10
2023-01-04T05:37:44.773Z,22.23
2023-01-04T05:42:47.977Z,28.15
2023-01-04T05:47:52.135Z,26.73
2023-01-04T05:52:56.647Z,20.33
2023-01-04T05:57:59.149Z,23.40
2023-01-04T06:03:09.131Z,22.70
2023-01-04T06:08:11.739Z,25.97
2023-01-04T06:13:14.087Z,27.95
2023-01-04T06:18:16.246Z,47.42
2023-01-04T06:23:18.458Z,45.72
2023-01-04T06:28:20.670Z,50.78
2023-01-04T06:33:22.927Z,48.60
2023-01-04T06:38:25.213Z,47.58
2023-01-04T06:43:27.374Z,43.85
2023-01-04T06:48:29.980Z,54.38
2023-01-04T06:53:32.233Z,58.25
2023-01-04T06:58:34.397Z,53.05
2023-01-04T07:03:36.750Z,51.20
2023-01-04T07:08:38.971Z,58.15
2023-01-04T07:13:41.191Z,51.72
2023-01-04T07:18:43.581Z,59.33
2023-01-04T07:23:50.047Z,59.15
2023-01-04T07:29:10.883Z,57.45
2023-01-04T07:34:14.544Z,72.25
2023-01-04T07:39:18.565Z,63.05
2023-01-04T07:44:22.544Z,71.40
2023-01-04T07:49:24.916Z,65.78
2023-01-04T07:54:27.278Z,67.38
2023-01-04T07:59:29.889Z,58.83
2023-01-04T08:04:35.182Z,57.03
2023-01-04T08:09:37.652Z,73.97
2023-01-04T08:14:40.096Z,63.80
2023-01-04T08:19:42.453Z,65.75
2023-01-04T08:24:44.762Z,58.97
2023-01-04T08:29:47.353Z,68.57
2023-01-04T08:34:49.470Z,58.42
2023-01-04T08:39:51.921Z,64.03
2023-01-04T08:44:58.959Z,57.35
2023-01-04T08:50:08.217Z,63.42
2023-01-04T08:55:15.185Z,69.05
2023-01-04T09:00:21.954Z,61.53
2023-01-04T09:05:26.313Z,72.40
2023-01-04T09:10:29.019Z,89.50
2023-01-04T09:15:32.556Z,63.33
2023-01-04T09:20:34.723Z,76.60
2023-01-04T09:25:40.322Z,74.18
2023-01-04T09:30:42.624Z,72.95
2023-01-04T09:35:44.785Z,50.70
2023-01-04T09:40:49.694Z,24.27
2023-01-04T09:45:56.268Z,29.42
2023-01-04T09:51:02.461Z,24.38
2023-01-04T09:56:21.474Z,29.98
2023-01-04T10:01:33.781Z,24.08
2023-01-04T10:06:37.974Z,14.25
2023-01-04T10:12:00.290Z,23.23
2023-01-04T10:17:28.143Z,15.38
2023-01-04T10:22:40.014Z,11.85
2023-01-04T10:27:57.580Z,24.65
2023-01-04T10:33:04.925Z,14.65
2023-01-04T10:38:24.448Z,15.95
2023-01-04T10:44:09.579Z,14.18
2023-01-04T10:49:30.005Z,14.75
2023-01-04T10:54:46.998Z,11.95
2023-01-04T11:00:00.738Z,14.77
2023-01-04T11:05:22.383Z,14.25
2023-01-04T11:10:31.897Z,19.15
2023-01-04T11:15:35.493Z,17.90
2023-01-04T11:20:38.567Z,70.40
2023-01-04T11:25:55.836Z,17.55
2023-01-04T11:31:05.119Z,18.10
2023-01-04T11:36:07.507Z,14.32
2023-01-04T11:41:17.296Z,14.57
2023-01-04T11:46:19.553Z,14.63
2023-01-04T11:51:27.868Z,14.35
2023-01-04T11:56:32.303Z,12.95
2023-01-04T12:01:38.059Z,16.33
2023-01-04T12:06:48.082Z,14.00
2023-01-04T12:11:54.580Z,25.27
2023-01-04T12:17:23.475Z,15.73
2023-01-04T12:22:34.499Z,18.05
2023-01-04T12:27:37.026Z,17.63
2023-01-04T12:32:41.572Z,19.35
2023-01-04T12:37:49.940Z,15.50
2023-01-04T12:43:26.315Z,21.65
2023-01-04T12:48:47.301Z,16.73
2023-01-04T12:53:57.304Z,16.40
2023-01-04T12:59:25.202Z,22.50
2023-01-04T13:04:41.464Z,17.30
2023-01-04T13:09:57.979Z,22.27
2023-01-04T13:15:08.563Z,15.35
2023-01-04T13:20:23.725Z,18.33
2023-01-04T13:25:26.963Z,17.45
2023-01-04T13:30:34.148Z,18.00
2023-01-04T13:35:36.725Z,17.63
2023-01-04T13:40:49.113Z,22.65
2023-01-04T13:46:08.477Z,16.35
2023-01-04T13:51:32.072Z,24.02
2023-01-04T13:56:38.218Z,30.83
2023-01-04T14:01:45.832Z,22.85
2023-01-04T14:06:51.205Z,24.63
2023-01-04T14:12:08.680Z,47.50
2023-01-04T14:17:16.650Z,23.45
2023-01-04T14:22:38.550Z,27.08
2023-01-04T14:27:45.845Z,22.80
2023-01-04T14:33:21.903Z,22.88
2023-01-04T14:38:24.365Z,30.60
2023-01-04T14:43:35.926Z,24.05
2023-01-04T14:48:38.294Z,45.17
2023-01-04T14:53:40.712Z,31.77
2023-01-04T14:58:43.817Z,26.92
2023-01-04T15:03:46.367Z,33.08
2023-01-04T15:08:49.175Z,33.35
2023-01-04T15:13:51.442Z,28.98
2023-01-04T15:18:53.642Z,21.35
2023-01-04T15:23:55.858Z,45.70
2023-01-04T15:28:58.247Z,29.70
2023-01-04T15:34:00.508Z,31.23
2023-01-04T15:39:02.998Z,27.08
2023-01-04T15:44:05.318Z,31.52
2023-01-04T15:49:13.351Z,26.58
2023-01-04T15:54:22.010Z,28.73
2023-01-04T15:59:24.968Z,24.02
2023-01-04T16:04:27.744Z,34.08
2023-01-04T16:09:31.257Z,26.98
2023-01-04T16:14:33.596Z,52.53
2023-01-04T16:19:35.765Z,78.75
2023-01-04T16:25:09.240Z,29.83
2023-01-04T16:30:01.106Z,25.55
2023-01-04T16:35:04.635Z,23.90
2023-01-04T16:40:08.968Z,22.35
2023-01-04T16:45:12.176Z,23.48
2023-01-04T16:50:14.521Z,23.40
2023-01-04T16:55:23.390Z,23.40
2023-01-04T17:00:26.314Z,27.15
2023-01-04T17:05:29.486Z,23.42
2023-01-04T17:10:31.933Z,28.33
2023-01-04T17:15:43.392Z,26.50
2023-01-04T17:20:53.963Z,27.58
2023-01-04T17:26:02.595Z,93.70
2023-01-04T17:31:16.938Z,39.33
2023-01-04T17:36:21.145Z,28.45
2023-01-04T17:41:25.316Z,25.08
2023-01-04T17:46:30.966Z,24.88
2023-01-04T17:51:34.253Z,24.23
2023-01-04T17:56:39.641Z,23.20
2023-01-04T18:01:41.900Z,24.27
2023-01-04T18:06:44.366Z,37.42
2023-01-04T18:11:46.614Z,26.38
2023-01-04T18:16:58.655Z,27.52
2023-01-04T18:22:01.752Z,24.77
2023-01-04T18:27:21.518Z,31.27
2023-01-04T18:32:26.654Z,29.52
2023-01-04T18:37:28.965Z,26.52
2023-01-04T18:42:32.063Z,26.85
2023-01-04T18:47:35.266Z,28.48
2023-01-04T18:52:37.515Z,33.85
2023-01-04T18:57:40.349Z,29.95
2023-01-04T19:02:42.843Z,32.95
2023-01-04T19:07:45.367Z,30.30
2023-01-04T19:12:47.802Z,31.05
2023-01-04T19:17:50.876Z,31.80
2023-01-04T19:22:53.108Z,32.05
2023-01-04T19:27:55.490Z,36.78
2023-01-04T19:32:57.869Z,37.65
2023-01-04T19:38:00.175Z,35.78
2023-01-04T19:43:02.671Z,37.25
2023-01-04T19:48:05.215Z,37.10
2023-01-04T19:53:07.603Z,35.20
2023-01-04T19:58:09.936Z,36.58
2023-01-04T20:03:12.249Z,33.35
2023-01-04T20:08:14.914Z,35.60
2023-01-04T20:13:17.306Z,33.42
2023-01-04T20:18:20.350Z,37.95
2023-01-04T20:23:22.934Z,33.67
2023-01-04T20:28:25.587Z,33.05
2023-01-04T20:33:28.012Z,37.67
2023-01-04T20:38:31.602Z,34.10
2023-01-04T20:43:37.575Z,31.02
2023-01-04T20:48:41.141Z,32.45
2023-01-04T20:53:43.700Z,37.45
2023-01-04T20:58:47.421Z,37.03
2023-01-04T21:03:50.217Z,37.80
2023-01-04T21:08:55.262Z,34.95
2023-01-04T21:13:57.817Z,38.25
2023-01-04T21:19:00.356Z,37.63
2023-01-04T21:24:02.720Z,36.38
2023-01-04T21:29:05.087Z,34.13
2023-01-04T21:34:13.040Z,30.67
2023-01-04T21:39:17.458Z,32.60
2023-01-04T21:44:20.070Z,37.30
2023-01-04T21:49:22.329Z,35.08
2023-01-04T21:54:24.793Z,36.95
2023-01-04T21:59:27.081Z,32.67
2023-01-04T22:04:29.350Z,31.65
2023-01-04T22:09:31.865Z,37.75
2023-01-04T22:14:35.085Z,58.40
2023-01-04T22:19:37.291Z,35.38
2023-01-04T22:24:39.480Z,48.58
2023-01-04T22:29:41.804Z,45.20
2023-01-04T22:34:44.032Z,47.05
2023-01-04T22:39:46.317Z,36.50
2023-01-04T22:44:48.647Z,38.85
2023-01-04T22:49:53.341Z,40.08
2023-01-04T22:54:55.868Z,37.67
2023-01-04T22:59:58.076Z,37.25
2023-01-04T23:05:00.330Z,39.13
2023-01-04T23:10:02.710Z,38.50
2023-01-04T23:15:05.358Z,41.17
2023-01-04T23:20:10.521Z,33.17
2023-01-04T23:25:13.167Z,33.42
2023-01-04T23:30:16.696Z,32.85
2023-01-04T23:35:18.978Z,32.45
2023-01-04T23:40:21.327Z,34.63
2023-01-04T23:45:24.226Z,33.33
2023-01-04T23:50:26.448Z,32.55
2023-01-04T23:55:28.954Z,30.50
